sensor_id;sensor_type;location;lat;lon;timestamp;temperature;humidity
20155;DHT22;10238;49.556;10.956;2023-06-24T00:01:32;15.60;99.90
20155;DHT22;10238;49.556;10.956;2023-06-24T00:04:20;15.50;99.90
20155;DHT22;10238;49.556;10.956;2023-06-24T00:07:09;15.50;99.90
20155;DHT22;10238;49.556;10.956;2023-06-24T00:09:58;15.50;99.90
20155;DHT22;10238;49.556;10.956;2023-06-24T00:12:46;15.50;99.90
20155;DHT22;10238;49.556;10.956;2023-06-24T00:15:34;15.40;99.90
20155;DHT22;10238;49.556;10.956;2023-06-24T00:18:22;15.40;99.90
20155;DHT22;10238;49.556;10.956;2023-06-24T00:21:11;15.40;99.90
20155;DHT22;10238;49.556;10.956;2023-06-24T00:23:59;15.30;99.90
20155;DHT22;10238;49.556;10.956;2023-06-24T00:26:51;15.30;99.90
20155;DHT22;10238;49.556;10.956;2023-06-24T00:29:39;15.30;99.90
20155;DHT22;10238;49.556;10.956;2023-06-24T00:32:27;15.30;99.90
20155;DHT22;10238;49.556;10.956;2023-06-24T00:35:14;15.20;99.90
20155;DHT22;10238;49.556;10.956;2023-06-24T00:38:02;15.10;99.90
20155;DHT22;10238;49.556;10.956;2023-06-24T00:40:50;15.10;99.90
20155;DHT22;10238;49.556;10.956;2023-06-24T00:43:39;15.10;99.90
20155;DHT22;10238;49.556;10.956;2023-06-24T00:46:27;15.00;99.90
20155;DHT22;10238;49.556;10.956;2023-06-24T00:49:17;15.00;99.90
20155;DHT22;10238;49.556;10.956;2023-06-24T00:52:06;15.00;99.90
20155;DHT22;10238;49.556;10.956;2023-06-24T00:55:01;14.90;99.90
20155;DHT22;10238;49.556;10.956;2023-06-24T00:57:51;14.80;99.90
20155;DHT22;10238;49.556;10.956;2023-06-24T01:00:42;14.80;99.90
20155;DHT22;10238;49.556;10.956;2023-06-24T01:03:32;14.80;99.90
20155;DHT22;10238;49.556;10.956;2023-06-24T01:06:23;14.90;99.90
20155;DHT22;10238;49.556;10.956;2023-06-24T01:09:15;14.80;99.90
20155;DHT22;10238;49.556;10.956;2023-06-24T01:12:03;14.70;99.90
20155;DHT22;10238;49.556;10.956;2023-06-24T01:14:52;14.60;99.90
20155;DHT22;10238;49.556;10.956;2023-06-24T01:17:49;14.60;99.90
20155;DHT22;10238;49.556;10.956;2023-06-24T01:20:52;14.60;99.90
20155;DHT22;10238;49.556;10.956;2023-06-24T01:24:05;14.50;99.90
20155;DHT22;10238;49.556;10.956;2023-06-24T01:27:24;14.50;99.90
20155;DHT22;10238;49.556;10.956;2023-06-24T01:30:45;14.40;99.90
20155;DHT22;10238;49.556;10.956;2023-06-24T01:33:49;14.40;99.90
20155;DHT22;10238;49.556;10.956;2023-06-24T01:36:46;14.30;99.90
20155;DHT22;10238;49.556;10.956;2023-06-24T01:39:47;14.30;99.90
20155;DHT22;10238;49.556;10.956;2023-06-24T01:42:38;14.20;99.90
20155;DHT22;10238;49.556;10.956;2023-06-24T01:45:32;14.20;99.90
20155;DHT22;10238;49.556;10.956;2023-06-24T01:48:28;14.20;99.90
20155;DHT22;10238;49.556;10.956;2023-06-24T01:51:24;14.10;99.90
20155;DHT22;10238;49.556;10.956;2023-06-24T01:54:15;14.10;99.90
20155;DHT22;10238;49.556;10.956;2023-06-24T01:57:06;14.10;99.90
20155;DHT22;10238;49.556;10.956;2023-06-24T01:59:57;14.00;99.90
20155;DHT22;10238;49.556;10.956;2023-06-24T02:02:46;14.00;99.90
20155;DHT22;10238;49.556;10.956;2023-06-24T02:05:37;14.00;99.90
20155;DHT22;10238;49.556;10.956;2023-06-24T02:08:31;14.00;99.90
20155;DHT22;10238;49.556;10.956;2023-06-24T02:11:24;13.90;99.90
20155;DHT22;10238;49.556;10.956;2023-06-24T02:14:14;13.90;99.90
20155;DHT22;10238;49.556;10.956;2023-06-24T02:17:06;13.90;99.90
20155;DHT22;10238;49.556;10.956;2023-06-24T02:19:57;13.80;99.90
20155;DHT22;10238;49.556;10.956;2023-06-24T02:22:46;13.80;99.90
20155;DHT22;10238;49.556;10.956;2023-06-24T02:25:36;13.90;99.90
20155;DHT22;10238;49.556;10.956;2023-06-24T02:28:31;13.80;99.90
20155;DHT22;10238;49.556;10.956;2023-06-24T02:31:20;13.80;99.90
20155;DHT22;10238;49.556;10.956;2023-06-24T02:34:08;13.70;99.90
20155;DHT22;10238;49.556;10.956;2023-06-24T02:36:57;13.70;99.90
20155;DHT22;10238;49.556;10.956;2023-06-24T02:39:46;13.70;99.90
20155;DHT22;10238;49.556;10.956;2023-06-24T02:42:35;13.60;99.90
20155;DHT22;10238;49.556;10.956;2023-06-24T02:45:23;13.60;99.90
20155;DHT22;10238;49.556;10.956;2023-06-24T02:48:11;13.50;99.90
20155;DHT22;10238;49.556;10.956;2023-06-24T02:51:02;13.60;99.90
20155;DHT22;10238;49.556;10.956;2023-06-24T02:53:52;13.60;99.90
20155;DHT22;10238;49.556;10.956;2023-06-24T02:56:42;13.50;99.90
20155;DHT22;10238;49.556;10.956;2023-06-24T02:59:32;13.50;99.90
20155;DHT22;10238;49.556;10.956;2023-06-24T03:02:20;13.50;99.90
20155;DHT22;10238;49.556;10.956;2023-06-24T03:05:10;13.50;99.90
20155;DHT22;10238;49.556;10.956;2023-06-24T03:08:00;13.50;99.90
20155;DHT22;10238;49.556;10.956;2023-06-24T03:10:50;13.40;99.90
20155;DHT22;10238;49.556;10.956;2023-06-24T03:13:40;13.40;99.90
20155;DHT22;10238;49.556;10.956;2023-06-24T03:16:29;13.40;99.90
20155;DHT22;10238;49.556;10.956;2023-06-24T03:19:17;13.30;99.90
20155;DHT22;10238;49.556;10.956;2023-06-24T03:22:05;13.30;99.90
20155;DHT22;10238;49.556;10.956;2023-06-24T03:24:52;13.30;99.90
20155;DHT22;10238;49.556;10.956;2023-06-24T03:27:40;13.20;99.90
20155;DHT22;10238;49.556;10.956;2023-06-24T03:30:28;13.20;99.90
20155;DHT22;10238;49.556;10.956;2023-06-24T03:33:17;13.20;99.90
20155;DHT22;10238;49.556;10.956;2023-06-24T03:36:05;13.20;99.90
20155;DHT22;10238;49.556;10.956;2023-06-24T03:38:53;13.20;99.90
20155;DHT22;10238;49.556;10.956;2023-06-24T03:41:40;13.20;99.90
20155;DHT22;10238;49.556;10.956;2023-06-24T03:44:28;13.10;99.90
20155;DHT22;10238;49.556;10.956;2023-06-24T03:47:16;13.10;99.90
20155;DHT22;10238;49.556;10.956;2023-06-24T03:50:06;13.20;99.90
20155;DHT22;10238;49.556;10.956;2023-06-24T03:52:54;13.10;99.90
20155;DHT22;10238;49.556;10.956;2023-06-24T03:55:42;13.10;99.90
20155;DHT22;10238;49.556;10.956;2023-06-24T03:58:29;13.10;99.90
20155;DHT22;10238;49.556;10.956;2023-06-24T04:01:17;13.10;99.90
20155;DHT22;10238;49.556;10.956;2023-06-24T04:04:05;13.10;99.90
20155;DHT22;10238;49.556;10.956;2023-06-24T04:06:54;13.10;99.90
20155;DHT22;10238;49.556;10.956;2023-06-24T04:09:42;13.10;99.90
20155;DHT22;10238;49.556;10.956;2023-06-24T04:12:30;13.10;99.90
20155;DHT22;10238;49.556;10.956;2023-06-24T04:15:17;13.10;99.90
20155;DHT22;10238;49.556;10.956;2023-06-24T04:18:05;13.10;99.90
20155;DHT22;10238;49.556;10.956;2023-06-24T04:20:53;13.10;99.90
20155;DHT22;10238;49.556;10.956;2023-06-24T04:23:42;13.10;99.90
20155;DHT22;10238;49.556;10.956;2023-06-24T04:26:29;13.10;99.90
20155;DHT22;10238;49.556;10.956;2023-06-24T04:29:18;13.20;99.90
20155;DHT22;10238;49.556;10.956;2023-06-24T04:32:06;13.30;99.90
20155;DHT22;10238;49.556;10.956;2023-06-24T04:34:54;13.30;99.90
20155;DHT22;10238;49.556;10.956;2023-06-24T04:37:41;13.30;99.90
20155;DHT22;10238;49.556;10.956;2023-06-24T04:40:30;13.40;99.90
20155;DHT22;10238;49.556;10.956;2023-06-24T04:43:18;13.40;99.90
20155;DHT22;10238;49.556;10.956;2023-06-24T04:46:05;13.50;99.90
20155;DHT22;10238;49.556;10.956;2023-06-24T04:48:53;13.60;99.90
20155;DHT22;10238;49.556;10.956;2023-06-24T04:51:40;13.60;99.90
20155;DHT22;10238;49.556;10.956;2023-06-24T04:54:29;13.60;99.90
20155;DHT22;10238;49.556;10.956;2023-06-24T04:57:26;13.70;99.90
20155;DHT22;10238;49.556;10.956;2023-06-24T05:00:15;13.80;99.90
20155;DHT22;10238;49.556;10.956;2023-06-24T05:03:03;13.80;99.90
20155;DHT22;10238;49.556;10.956;2023-06-24T05:05:51;13.90;99.90
20155;DHT22;10238;49.556;10.956;2023-06-24T05:08:38;14.00;99.90
20155;DHT22;10238;49.556;10.956;2023-06-24T05:11:26;14.20;99.90
20155;DHT22;10238;49.556;10.956;2023-06-24T05:14:15;14.20;99.90
20155;DHT22;10238;49.556;10.956;2023-06-24T05:17:03;14.40;99.90
20155;DHT22;10238;49.556;10.956;2023-06-24T05:19:51;14.40;99.90
20155;DHT22;10238;49.556;10.956;2023-06-24T05:22:38;14.50;99.90
20155;DHT22;10238;49.556;10.956;2023-06-24T05:25:26;14.70;99.90
20155;DHT22;10238;49.556;10.956;2023-06-24T05:28:13;14.70;99.90
20155;DHT22;10238;49.556;10.956;2023-06-24T05:31:02;14.80;99.90
20155;DHT22;10238;49.556;10.956;2023-06-24T05:33:50;14.90;99.90
20155;DHT22;10238;49.556;10.956;2023-06-24T05:36:38;15.00;99.90
20155;DHT22;10238;49.556;10.956;2023-06-24T05:39:25;15.00;99.90
20155;DHT22;10238;49.556;10.956;2023-06-24T05:42:13;15.10;99.90
20155;DHT22;10238;49.556;10.956;2023-06-24T05:45:00;15.30;99.90
20155;DHT22;10238;49.556;10.956;2023-06-24T05:47:49;15.60;99.90
20155;DHT22;10238;49.556;10.956;2023-06-24T05:50:37;15.60;99.90
20155;DHT22;10238;49.556;10.956;2023-06-24T05:53:25;15.80;99.90
20155;DHT22;10238;49.556;10.956;2023-06-24T05:56:12;15.90;99.90
20155;DHT22;10238;49.556;10.956;2023-06-24T05:59:00;16.00;99.90
20155;DHT22;10238;49.556;10.956;2023-06-24T06:01:48;16.20;99.90
20155;DHT22;10238;49.556;10.956;2023-06-24T06:04:38;16.40;99.90
20155;DHT22;10238;49.556;10.956;2023-06-24T06:07:26;16.60;99.90
20155;DHT22;10238;49.556;10.956;2023-06-24T06:10:14;16.70;99.90
20155;DHT22;10238;49.556;10.956;2023-06-24T06:13:04;16.90;99.90
20155;DHT22;10238;49.556;10.956;2023-06-24T06:15:51;17.00;99.90
20155;DHT22;10238;49.556;10.956;2023-06-24T06:18:39;17.20;99.90
20155;DHT22;10238;49.556;10.956;2023-06-24T06:21:28;17.40;99.90
20155;DHT22;10238;49.556;10.956;2023-06-24T06:24:15;17.50;99.90
20155;DHT22;10238;49.556;10.956;2023-06-24T06:27:04;17.60;99.90
20155;DHT22;10238;49.556;10.956;2023-06-24T06:29:52;17.90;99.90
20155;DHT22;10238;49.556;10.956;2023-06-24T06:32:40;18.10;99.90
20155;DHT22;10238;49.556;10.956;2023-06-24T06:35:28;18.20;99.90
20155;DHT22;10238;49.556;10.956;2023-06-24T06:38:18;18.50;99.90
20155;DHT22;10238;49.556;10.956;2023-06-24T06:41:05;18.80;99.90
20155;DHT22;10238;49.556;10.956;2023-06-24T06:43:53;19.10;99.90
20155;DHT22;10238;49.556;10.956;2023-06-24T06:46:41;19.30;99.90
20155;DHT22;10238;49.556;10.956;2023-06-24T06:49:28;19.60;99.90
20155;DHT22;10238;49.556;10.956;2023-06-24T06:52:16;19.90;99.90
20155;DHT22;10238;49.556;10.956;2023-06-24T06:55:06;20.20;99.90
20155;DHT22;10238;49.556;10.956;2023-06-24T06:57:54;20.40;99.90
20155;DHT22;10238;49.556;10.956;2023-06-24T07:00:42;20.40;99.90
20155;DHT22;10238;49.556;10.956;2023-06-24T07:03:30;20.60;99.90
20155;DHT22;10238;49.556;10.956;2023-06-24T07:06:18;20.90;99.90
20155;DHT22;10238;49.556;10.956;2023-06-24T07:09:06;21.00;99.90
20155;DHT22;10238;49.556;10.956;2023-06-24T07:11:55;21.20;99.90
20155;DHT22;10238;49.556;10.956;2023-06-24T07:14:44;21.10;99.90
20155;DHT22;10238;49.556;10.956;2023-06-24T07:17:31;21.30;99.90
20155;DHT22;10238;49.556;10.956;2023-06-24T07:20:19;21.60;99.90
20155;DHT22;10238;49.556;10.956;2023-06-24T07:23:08;21.80;99.90
20155;DHT22;10238;49.556;10.956;2023-06-24T07:25:56;22.20;99.90
20155;DHT22;10238;49.556;10.956;2023-06-24T07:28:50;22.20;99.90
20155;DHT22;10238;49.556;10.956;2023-06-24T07:31:53;22.40;99.90
20155;DHT22;10238;49.556;10.956;2023-06-24T07:34:41;22.70;99.90
20155;DHT22;10238;49.556;10.956;2023-06-24T07:37:28;23.10;99.90
20155;DHT22;10238;49.556;10.956;2023-06-24T07:40:15;23.20;99.90
20155;DHT22;10238;49.556;10.956;2023-06-24T07:43:04;23.40;99.90
20155;DHT22;10238;49.556;10.956;2023-06-24T07:45:53;23.80;99.90
20155;DHT22;10238;49.556;10.956;2023-06-24T07:48:41;24.30;99.90
20155;DHT22;10238;49.556;10.956;2023-06-24T07:51:29;24.70;99.90
20155;DHT22;10238;49.556;10.956;2023-06-24T07:54:16;25.20;99.90
20155;DHT22;10238;49.556;10.956;2023-06-24T07:57:04;25.70;99.90
20155;DHT22;10238;49.556;10.956;2023-06-24T07:59:52;26.00;99.90
20155;DHT22;10238;49.556;10.956;2023-06-24T08:02:42;26.30;99.90
20155;DHT22;10238;49.556;10.956;2023-06-24T08:05:30;26.40;99.90
20155;DHT22;10238;49.556;10.956;2023-06-24T08:08:18;26.60;99.90
20155;DHT22;10238;49.556;10.956;2023-06-24T08:11:07;26.80;99.90
20155;DHT22;10238;49.556;10.956;2023-06-24T08:13:54;27.20;99.90
20155;DHT22;10238;49.556;10.956;2023-06-24T08:16:42;27.40;99.90
20155;DHT22;10238;49.556;10.956;2023-06-24T08:19:31;27.60;99.90
20155;DHT22;10238;49.556;10.956;2023-06-24T08:22:19;27.70;99.90
20155;DHT22;10238;49.556;10.956;2023-06-24T08:25:07;27.70;99.90
20155;DHT22;10238;49.556;10.956;2023-06-24T08:27:56;27.80;99.90
20155;DHT22;10238;49.556;10.956;2023-06-24T08:30:43;28.00;99.90
20155;DHT22;10238;49.556;10.956;2023-06-24T08:33:31;28.30;99.90
20155;DHT22;10238;49.556;10.956;2023-06-24T08:36:21;28.30;99.90
20155;DHT22;10238;49.556;10.956;2023-06-24T08:39:10;28.40;99.90
20155;DHT22;10238;49.556;10.956;2023-06-24T08:41:58;28.60;99.90
20155;DHT22;10238;49.556;10.956;2023-06-24T08:44:45;28.80;99.90
20155;DHT22;10238;49.556;10.956;2023-06-24T08:47:33;29.00;99.90
20155;DHT22;10238;49.556;10.956;2023-06-24T08:50:24;29.30;99.90
20155;DHT22;10238;49.556;10.956;2023-06-24T08:53:20;29.50;99.90
20155;DHT22;10238;49.556;10.956;2023-06-24T08:56:09;29.80;99.90
20155;DHT22;10238;49.556;10.956;2023-06-24T08:58:58;29.80;99.90
20155;DHT22;10238;49.556;10.956;2023-06-24T09:01:46;29.50;99.90
20155;DHT22;10238;49.556;10.956;2023-06-24T09:04:34;29.20;99.90
20155;DHT22;10238;49.556;10.956;2023-06-24T09:07:28;29.50;99.90
20155;DHT22;10238;49.556;10.956;2023-06-24T09:10:30;29.50;99.90
20155;DHT22;10238;49.556;10.956;2023-06-24T09:13:19;29.80;99.90
20155;DHT22;10238;49.556;10.956;2023-06-24T09:16:14;30.10;99.70
20155;DHT22;10238;49.556;10.956;2023-06-24T09:19:02;30.40;99.10
20155;DHT22;10238;49.556;10.956;2023-06-24T09:21:51;30.30;99.70
20155;DHT22;10238;49.556;10.956;2023-06-24T09:24:39;30.50;98.60
20155;DHT22;10238;49.556;10.956;2023-06-24T09:27:31;30.80;98.20
20155;DHT22;10238;49.556;10.956;2023-06-24T09:30:21;31.00;97.00
20155;DHT22;10238;49.556;10.956;2023-06-24T09:33:11;31.10;96.70
20155;DHT22;10238;49.556;10.956;2023-06-24T09:36:01;31.20;96.20
20155;DHT22;10238;49.556;10.956;2023-06-24T09:38:49;31.20;95.70
20155;DHT22;10238;49.556;10.956;2023-06-24T09:41:40;31.40;94.80
20155;DHT22;10238;49.556;10.956;2023-06-24T09:44:30;31.40;94.20
20155;DHT22;10238;49.556;10.956;2023-06-24T09:47:18;31.50;93.80
20155;DHT22;10238;49.556;10.956;2023-06-24T09:50:06;31.80;93.80
20155;DHT22;10238;49.556;10.956;2023-06-24T09:52:56;31.90;92.60
20155;DHT22;10238;49.556;10.956;2023-06-24T09:55:45;31.90;91.20
20155;DHT22;10238;49.556;10.956;2023-06-24T09:58:36;32.10;93.30
20155;DHT22;10238;49.556;10.956;2023-06-24T10:01:25;32.10;92.80
20155;DHT22;10238;49.556;10.956;2023-06-24T10:04:16;32.30;93.00
20155;DHT22;10238;49.556;10.956;2023-06-24T10:07:05;32.40;92.90
20155;DHT22;10238;49.556;10.956;2023-06-24T10:09:53;32.40;92.60
20155;DHT22;10238;49.556;10.956;2023-06-24T10:12:43;32.50;92.20
20155;DHT22;10238;49.556;10.956;2023-06-24T10:15:30;32.70;92.20
20155;DHT22;10238;49.556;10.956;2023-06-24T10:18:36;32.60;92.40
20155;DHT22;10238;49.556;10.956;2023-06-24T10:21:43;32.50;92.70
20155;DHT22;10238;49.556;10.956;2023-06-24T10:24:34;32.90;91.90
20155;DHT22;10238;49.556;10.956;2023-06-24T10:27:23;33.00;91.20
20155;DHT22;10238;49.556;10.956;2023-06-24T10:30:17;32.80;91.40
20155;DHT22;10238;49.556;10.956;2023-06-24T10:33:10;32.70;90.90
20155;DHT22;10238;49.556;10.956;2023-06-24T10:36:00;32.90;90.40
20155;DHT22;10238;49.556;10.956;2023-06-24T10:38:55;33.10;91.30
20155;DHT22;10238;49.556;10.956;2023-06-24T10:41:43;33.30;90.70
20155;DHT22;10238;49.556;10.956;2023-06-24T10:44:44;33.50;90.40
20155;DHT22;10238;49.556;10.956;2023-06-24T10:47:33;33.50;90.20
20155;DHT22;10238;49.556;10.956;2023-06-24T10:50:21;33.60;90.10
20155;DHT22;10238;49.556;10.956;2023-06-24T10:53:12;33.70;89.70
20155;DHT22;10238;49.556;10.956;2023-06-24T10:56:01;33.80;90.60
20155;DHT22;10238;49.556;10.956;2023-06-24T10:58:56;33.90;88.00
20155;DHT22;10238;49.556;10.956;2023-06-24T11:01:52;34.00;87.30
20155;DHT22;10238;49.556;10.956;2023-06-24T11:04:43;34.10;86.30
20155;DHT22;10238;49.556;10.956;2023-06-24T11:07:33;34.20;86.40
20155;DHT22;10238;49.556;10.956;2023-06-24T11:10:22;34.20;85.40
20155;DHT22;10238;49.556;10.956;2023-06-24T11:13:12;34.20;85.10
20155;DHT22;10238;49.556;10.956;2023-06-24T11:16:00;34.20;84.20
20155;DHT22;10238;49.556;10.956;2023-06-24T11:18:48;34.10;84.50
20155;DHT22;10238;49.556;10.956;2023-06-24T11:21:36;34.30;85.40
20155;DHT22;10238;49.556;10.956;2023-06-24T11:24:23;34.30;85.30
20155;DHT22;10238;49.556;10.956;2023-06-24T11:27:12;33.90;87.40
20155;DHT22;10238;49.556;10.956;2023-06-24T11:30:00;34.00;84.00
20155;DHT22;10238;49.556;10.956;2023-06-24T11:32:49;34.20;83.00
20155;DHT22;10238;49.556;10.956;2023-06-24T11:35:37;34.20;83.70
20155;DHT22;10238;49.556;10.956;2023-06-24T11:38:25;34.40;83.70
20155;DHT22;10238;49.556;10.956;2023-06-24T11:41:20;34.50;82.40
20155;DHT22;10238;49.556;10.956;2023-06-24T11:44:10;34.40;82.10
20155;DHT22;10238;49.556;10.956;2023-06-24T11:47:04;34.40;82.10
20155;DHT22;10238;49.556;10.956;2023-06-24T11:49:55;34.70;81.60
20155;DHT22;10238;49.556;10.956;2023-06-24T11:52:46;34.50;80.70
20155;DHT22;10238;49.556;10.956;2023-06-24T11:55:35;34.60;79.20
20155;DHT22;10238;49.556;10.956;2023-06-24T11:58:23;34.60;81.20
20155;DHT22;10238;49.556;10.956;2023-06-24T12:01:12;34.80;81.10
20155;DHT22;10238;49.556;10.956;2023-06-24T12:04:00;35.00;79.60
20155;DHT22;10238;49.556;10.956;2023-06-24T12:06:48;35.00;79.70
20155;DHT22;10238;49.556;10.956;2023-06-24T12:09:37;35.20;80.00
20155;DHT22;10238;49.556;10.956;2023-06-24T12:12:25;35.20;75.00
20155;DHT22;10238;49.556;10.956;2023-06-24T12:15:13;35.20;79.20
20155;DHT22;10238;49.556;10.956;2023-06-24T12:18:02;35.30;79.50
20155;DHT22;10238;49.556;10.956;2023-06-24T12:20:51;35.40;78.50
20155;DHT22;10238;49.556;10.956;2023-06-24T12:23:38;35.80;77.70
20155;DHT22;10238;49.556;10.956;2023-06-24T12:26:26;35.80;76.60
20155;DHT22;10238;49.556;10.956;2023-06-24T12:29:13;35.70;77.80
20155;DHT22;10238;49.556;10.956;2023-06-24T12:32:01;35.60;78.40
20155;DHT22;10238;49.556;10.956;2023-06-24T12:34:50;35.80;75.70
20155;DHT22;10238;49.556;10.956;2023-06-24T12:37:38;36.10;75.70
20155;DHT22;10238;49.556;10.956;2023-06-24T12:40:26;36.10;77.40
20155;DHT22;10238;49.556;10.956;2023-06-24T12:43:14;36.30;76.10
20155;DHT22;10238;49.556;10.956;2023-06-24T12:46:02;36.20;75.70
20155;DHT22;10238;49.556;10.956;2023-06-24T12:48:50;36.40;74.20
20155;DHT22;10238;49.556;10.956;2023-06-24T12:51:39;36.20;75.40
20155;DHT22;10238;49.556;10.956;2023-06-24T12:54:26;36.20;75.60
20155;DHT22;10238;49.556;10.956;2023-06-24T12:57:14;36.50;72.80
20155;DHT22;10238;49.556;10.956;2023-06-24T13:00:03;36.70;75.00
20155;DHT22;10238;49.556;10.956;2023-06-24T13:02:52;37.10;75.40
20155;DHT22;10238;49.556;10.956;2023-06-24T13:05:42;37.10;73.00
20155;DHT22;10238;49.556;10.956;2023-06-24T13:08:31;37.10;76.60
20155;DHT22;10238;49.556;10.956;2023-06-24T13:11:19;37.10;73.40
20155;DHT22;10238;49.556;10.956;2023-06-24T13:14:06;36.60;74.60
20155;DHT22;10238;49.556;10.956;2023-06-24T13:16:56;35.90;75.80
20155;DHT22;10238;49.556;10.956;2023-06-24T13:19:43;35.40;75.10
20155;DHT22;10238;49.556;10.956;2023-06-24T13:22:31;35.10;75.50
20155;DHT22;10238;49.556;10.956;2023-06-24T13:25:20;34.90;78.20
20155;DHT22;10238;49.556;10.956;2023-06-24T13:28:08;35.50;73.30
20155;DHT22;10238;49.556;10.956;2023-06-24T13:30:56;36.00;73.10
20155;DHT22;10238;49.556;10.956;2023-06-24T13:33:43;35.80;71.10
20155;DHT22;10238;49.556;10.956;2023-06-24T13:36:33;35.10;77.30
20155;DHT22;10238;49.556;10.956;2023-06-24T13:39:22;34.90;75.30
20155;DHT22;10238;49.556;10.956;2023-06-24T13:42:12;34.60;76.20
20155;DHT22;10238;49.556;10.956;2023-06-24T13:45:00;34.60;77.30
20155;DHT22;10238;49.556;10.956;2023-06-24T13:47:49;34.90;75.90
20155;DHT22;10238;49.556;10.956;2023-06-24T13:50:37;35.10;75.40
20155;DHT22;10238;49.556;10.956;2023-06-24T13:53:24;35.20;74.60
20155;DHT22;10238;49.556;10.956;2023-06-24T13:56:12;35.20;72.80
20155;DHT22;10238;49.556;10.956;2023-06-24T13:59:01;35.20;75.70
20155;DHT22;10238;49.556;10.956;2023-06-24T14:01:49;35.30;73.90
20155;DHT22;10238;49.556;10.956;2023-06-24T14:04:38;35.20;78.30
20155;DHT22;10238;49.556;10.956;2023-06-24T14:07:26;34.90;74.90
20155;DHT22;10238;49.556;10.956;2023-06-24T14:10:14;34.40;78.20
20155;DHT22;10238;49.556;10.956;2023-06-24T14:13:02;34.00;77.80
20155;DHT22;10238;49.556;10.956;2023-06-24T14:15:52;33.80;77.60
20155;DHT22;10238;49.556;10.956;2023-06-24T14:18:40;33.70;77.30
20155;DHT22;10238;49.556;10.956;2023-06-24T14:21:28;33.90;72.10
20155;DHT22;10238;49.556;10.956;2023-06-24T14:24:17;34.20;74.40
20155;DHT22;10238;49.556;10.956;2023-06-24T14:27:06;34.00;75.00
20155;DHT22;10238;49.556;10.956;2023-06-24T14:29:55;33.40;76.10
20155;DHT22;10238;49.556;10.956;2023-06-24T14:32:44;33.10;77.60
20155;DHT22;10238;49.556;10.956;2023-06-24T14:35:32;32.90;77.90
20155;DHT22;10238;49.556;10.956;2023-06-24T14:38:20;33.40;70.00
20155;DHT22;10238;49.556;10.956;2023-06-24T14:41:07;33.90;72.50
20155;DHT22;10238;49.556;10.956;2023-06-24T14:43:55;34.20;77.20
20155;DHT22;10238;49.556;10.956;2023-06-24T14:46:42;34.40;79.30
20155;DHT22;10238;49.556;10.956;2023-06-24T14:49:32;34.50;78.20
20155;DHT22;10238;49.556;10.956;2023-06-24T14:52:20;34.90;75.60
20155;DHT22;10238;49.556;10.956;2023-06-24T14:55:08;35.20;76.60
20155;DHT22;10238;49.556;10.956;2023-06-24T14:57:56;35.20;75.40
20155;DHT22;10238;49.556;10.956;2023-06-24T15:00:45;34.80;73.70
20155;DHT22;10238;49.556;10.956;2023-06-24T15:03:32;34.30;74.90
20155;DHT22;10238;49.556;10.956;2023-06-24T15:06:22;34.10;75.40
20155;DHT22;10238;49.556;10.956;2023-06-24T15:09:10;33.80;75.40
20155;DHT22;10238;49.556;10.956;2023-06-24T15:11:57;33.50;75.50
20155;DHT22;10238;49.556;10.956;2023-06-24T15:14:45;33.40;74.80
20155;DHT22;10238;49.556;10.956;2023-06-24T15:17:34;33.20;75.30
20155;DHT22;10238;49.556;10.956;2023-06-24T15:20:26;33.60;74.60
20155;DHT22;10238;49.556;10.956;2023-06-24T15:23:16;34.10;75.70
20155;DHT22;10238;49.556;10.956;2023-06-24T15:26:03;34.40;75.70
20155;DHT22;10238;49.556;10.956;2023-06-24T15:28:52;34.50;74.90
20155;DHT22;10238;49.556;10.956;2023-06-24T15:31:40;34.80;75.90
20155;DHT22;10238;49.556;10.956;2023-06-24T15:34:28;35.00;70.20
20155;DHT22;10238;49.556;10.956;2023-06-24T15:37:16;34.70;71.80
20155;DHT22;10238;49.556;10.956;2023-06-24T15:40:07;34.90;71.80
20155;DHT22;10238;49.556;10.956;2023-06-24T15:42:58;35.20;72.10
20155;DHT22;10238;49.556;10.956;2023-06-24T15:45:46;35.50;72.30
20155;DHT22;10238;49.556;10.956;2023-06-24T15:48:34;35.70;71.00
20155;DHT22;10238;49.556;10.956;2023-06-24T15:51:24;35.70;71.20
20155;DHT22;10238;49.556;10.956;2023-06-24T15:54:14;35.80;71.50
20155;DHT22;10238;49.556;10.956;2023-06-24T15:57:04;36.00;70.90
20155;DHT22;10238;49.556;10.956;2023-06-24T15:59:52;36.40;66.10
20155;DHT22;10238;49.556;10.956;2023-06-24T16:02:41;36.20;71.10
20155;DHT22;10238;49.556;10.956;2023-06-24T16:05:30;36.30;71.40
20155;DHT22;10238;49.556;10.956;2023-06-24T16:08:18;36.70;69.90
20155;DHT22;10238;49.556;10.956;2023-06-24T16:11:08;36.90;69.60
20155;DHT22;10238;49.556;10.956;2023-06-24T16:13:57;37.10;69.40
20155;DHT22;10238;49.556;10.956;2023-06-24T16:16:45;37.30;70.00
20155;DHT22;10238;49.556;10.956;2023-06-24T16:19:34;37.50;69.70
20155;DHT22;10238;49.556;10.956;2023-06-24T16:22:21;37.60;69.70
20155;DHT22;10238;49.556;10.956;2023-06-24T16:25:10;37.70;68.70
20155;DHT22;10238;49.556;10.956;2023-06-24T16:27:58;37.70;68.70
20155;DHT22;10238;49.556;10.956;2023-06-24T16:30:47;37.70;65.60
20155;DHT22;10238;49.556;10.956;2023-06-24T16:33:36;37.80;67.10
20155;DHT22;10238;49.556;10.956;2023-06-24T16:36:24;38.00;65.60
20155;DHT22;10238;49.556;10.956;2023-06-24T16:39:12;37.90;66.60
20155;DHT22;10238;49.556;10.956;2023-06-24T16:42:00;37.80;66.90
20155;DHT22;10238;49.556;10.956;2023-06-24T16:44:48;37.80;66.90
20155;DHT22;10238;49.556;10.956;2023-06-24T16:47:38;37.70;66.70
20155;DHT22;10238;49.556;10.956;2023-06-24T16:50:26;37.70;66.70
20155;DHT22;10238;49.556;10.956;2023-06-24T16:53:14;37.70;66.60
20155;DHT22;10238;49.556;10.956;2023-06-24T16:56:02;37.60;65.20
20155;DHT22;10238;49.556;10.956;2023-06-24T16:58:50;37.50;66.80
20155;DHT22;10238;49.556;10.956;2023-06-24T17:01:37;37.40;68.30
20155;DHT22;10238;49.556;10.956;2023-06-24T17:04:26;37.40;68.20
20155;DHT22;10238;49.556;10.956;2023-06-24T17:07:14;37.10;68.80
20155;DHT22;10238;49.556;10.956;2023-06-24T17:10:02;37.00;68.60
20155;DHT22;10238;49.556;10.956;2023-06-24T17:12:50;36.90;68.60
20155;DHT22;10238;49.556;10.956;2023-06-24T17:15:38;36.80;68.60
20155;DHT22;10238;49.556;10.956;2023-06-24T17:18:26;36.50;67.60
20155;DHT22;10238;49.556;10.956;2023-06-24T17:21:17;36.10;68.60
20155;DHT22;10238;49.556;10.956;2023-06-24T17:24:06;35.60;68.80
20155;DHT22;10238;49.556;10.956;2023-06-24T17:26:53;35.20;69.40
20155;DHT22;10238;49.556;10.956;2023-06-24T17:29:41;34.90;70.10
20155;DHT22;10238;49.556;10.956;2023-06-24T17:32:28;34.50;70.50